Time;durP1;ratioP1;P1;durP2;ratioP2;P2;SDS_P1;SDS_P2;PMS_P1;PMS_P2;Temp;Humidity;BMP_temperature;BMP_pressure;BME280_temperature;BME280_humidity;BME280_pressure;Samples;Min_cycle;Max_cycle;Signal;HPM_P1;HPM_P2
2022/09/19 00:04:27;;;;;;;;;;;;;;;6.17;100.00;101544.66;10348145;28;20024;-77
2022/09/19 00:09:30;;;;;;;;;;;;;;;6.10;100.00;101542.38;10372301;28;19928;-78
2022/09/19 00:14:33;;;;;;;;;;;;;;;6.04;100.00;101535.81;10370276;28;19921;-77
2022/09/19 00:19:33;;;;;;;;;;;;;;;5.98;100.00;101533.59;10350030;28;20328;-77
2022/09/19 00:24:46;;;;;;;;;;;;;;;6.01;100.00;101528.69;10370224;28;19948;-77
2022/09/19 00:29:46;;;;;;;;;;;;;;;6.01;100.00;101524.41;10362751;28;19940;-77
2022/09/19 00:34:47;;;;;;;;;;;;;;;6.08;100.00;101524.88;10358558;28;19922;-77
2022/09/19 00:39:48;;;;;;;;;;;;;;;5.98;100.00;101529.34;10361226;28;19976;-77
2022/09/19 00:44:56;;;;;;;;;;;;;;;5.97;100.00;101530.13;10372555;28;19976;-77
2022/09/19 00:49:56;;;;;;;;;;;;;;;5.91;100.00;101536.53;10360400;28;19964;-77
2022/09/19 00:54:57;;;;;;;;;;;;;;;5.92;100.00;101539.25;10372743;28;20008;-77
2022/09/19 00:59:57;;;;;;;;;;;;;;;5.83;100.00;101538.53;10371930;28;19971;-77
2022/09/19 01:04:57;;;;;;;;;;;;;;;5.78;100.00;101539.88;10376581;28;19944;-77
2022/09/19 01:10:01;;;;;;;;;;;;;;;5.76;100.00;101544.94;10380903;28;19994;-77
2022/09/19 01:15:09;;;;;;;;;;;;;;;5.79;100.00;101545.19;10396136;28;20340;-78
2022/09/19 01:20:10;;;;;;;;;;;;;;;5.78;100.00;101545.06;10374080;28;19932;-77
2022/09/19 01:25:31;;;;;;;;;;;;;;;5.63;100.00;101549.97;10383335;28;19921;-78
2022/09/19 01:30:31;;;;;;;;;;;;;;;5.59;100.00;101560.09;10399616;28;20016;-78
2022/09/19 01:35:32;;;;;;;;;;;;;;;5.58;100.00;101560.00;10379920;28;19925;-78
2022/09/19 01:40:32;;;;;;;;;;;;;;;5.47;100.00;101561.72;10396710;28;20036;-77
2022/09/19 01:45:36;;;;;;;;;;;;;;;5.43;100.00;101560.59;10371372;28;20415;-78
2022/09/19 01:50:45;;;;;;;;;;;;;;;5.44;100.00;101572.78;10381382;28;19917;-78
2022/09/19 01:55:45;;;;;;;;;;;;;;;5.45;100.00;101573.69;10371765;28;19947;-78
2022/09/19 02:01:08;;;;;;;;;;;;;;;5.43;100.00;101576.16;10392657;28;19921;-77
2022/09/19 02:06:15;;;;;;;;;;;;;;;5.41;100.00;101582.94;10383532;28;19925;-78
2022/09/19 02:11:17;;;;;;;;;;;;;;;5.42;100.00;101576.97;10395478;28;19970;-78
2022/09/19 02:16:18;;;;;;;;;;;;;;;5.39;100.00;101584.50;10379910;28;19940;-77
2022/09/19 02:21:21;;;;;;;;;;;;;;;5.47;100.00;101582.50;10389712;28;19925;-78
2022/09/19 02:26:21;;;;;;;;;;;;;;;5.40;100.00;101583.72;10391786;28;19917;-77
2022/09/19 02:31:26;;;;;;;;;;;;;;;5.34;100.00;101596.22;10394546;28;19928;-78
2022/09/19 02:36:33;;;;;;;;;;;;;;;5.31;100.00;101595.97;10395907;28;20304;-78
2022/09/19 02:41:36;;;;;;;;;;;;;;;5.22;100.00;101587.44;10377285;28;20040;-78
2022/09/19 02:46:39;;;;;;;;;;;;;;;5.11;100.00;101592.66;10388529;28;19963;-78
2022/09/19 02:51:44;;;;;;;;;;;;;;;5.06;100.00;101596.56;10405990;28;20383;-78
2022/09/19 02:56:45;;;;;;;;;;;;;;;5.15;100.00;101588.59;10389436;28;19925;-77
2022/09/19 03:01:47;;;;;;;;;;;;;;;5.10;100.00;101601.22;10409451;28;20391;-77
2022/09/19 03:06:56;;;;;;;;;;;;;;;5.18;100.00;101607.03;10387723;28;19943;-78
2022/09/19 03:12:09;;;;;;;;;;;;;;;5.32;100.00;101602.03;10394846;28;20455;-78
2022/09/19 03:17:10;;;;;;;;;;;;;;;5.29;100.00;101605.31;10415197;28;19922;-77
2022/09/19 03:22:10;;;;;;;;;;;;;;;5.31;100.00;101605.41;10377166;28;20289;-77
2022/09/19 03:27:11;;;;;;;;;;;;;;;5.39;100.00;101604.34;10403398;28;20005;-76
2022/09/19 03:32:11;;;;;;;;;;;;;;;5.36;100.00;101605.03;10388224;28;19927;-76
2022/09/19 03:37:11;;;;;;;;;;;;;;;5.34;100.00;101611.78;10402519;28;19924;-76
2022/09/19 03:42:12;;;;;;;;;;;;;;;5.29;100.00;101614.00;10387578;28;20325;-76
2022/09/19 03:47:13;;;;;;;;;;;;;;;5.26;100.00;101605.94;10380712;28;20015;-76
2022/09/19 03:52:13;;;;;;;;;;;;;;;5.32;100.00;101607.22;10406276;28;19924;-76
2022/09/19 03:57:13;;;;;;;;;;;;;;;5.25;100.00;101616.22;10382258;28;20337;-76
2022/09/19 04:02:14;;;;;;;;;;;;;;;5.16;100.00;101610.28;10372631;28;19925;-76
2022/09/19 04:07:15;;;;;;;;;;;;;;;5.21;100.00;101617.66;10383190;28;19920;-76
2022/09/19 04:12:16;;;;;;;;;;;;;;;5.30;100.00;101627.88;10404712;28;20347;-77
2022/09/19 04:17:16;;;;;;;;;;;;;;;5.37;100.00;101617.22;10383259;28;19978;-77
2022/09/19 04:22:18;;;;;;;;;;;;;;;5.56;100.00;101611.78;10393732;28;19936;-77
2022/09/19 04:27:19;;;;;;;;;;;;;;;5.72;100.00;101619.13;10379403;28;20015;-77
2022/09/19 04:32:21;;;;;;;;;;;;;;;5.96;100.00;101623.53;10409342;28;20024;-78
2022/09/19 04:37:22;;;;;;;;;;;;;;;6.12;100.00;101628.28;10398707;28;20331;-78
2022/09/19 04:42:22;;;;;;;;;;;;;;;6.22;100.00;101625.63;10385949;28;19928;-74
2022/09/19 04:47:22;;;;;;;;;;;;;;;6.32;100.00;101633.34;10410962;28;19928;-76
2022/09/19 04:52:23;;;;;;;;;;;;;;;6.36;100.00;101636.16;10380562;28;19964;-75
2022/09/19 04:57:26;;;;;;;;;;;;;;;6.40;100.00;101640.81;10409177;28;19928;-76
2022/09/19 05:02:30;;;;;;;;;;;;;;;6.43;100.00;101641.06;10393409;28;19993;-77
2022/09/19 05:07:33;;;;;;;;;;;;;;;6.34;100.00;101654.22;10379682;28;19982;-77
2022/09/19 05:12:34;;;;;;;;;;;;;;;6.38;100.00;101660.59;10394285;28;19932;-78
2022/09/19 05:17:36;;;;;;;;;;;;;;;6.45;100.00;101663.78;10396863;28;19928;-76
2022/09/19 05:22:36;;;;;;;;;;;;;;;6.28;100.00;101659.88;10367498;28;19917;-77
2022/09/19 05:27:49;;;;;;;;;;;;;;;6.10;100.00;101668.84;10383349;28;20760;-77
2022/09/19 05:32:54;;;;;;;;;;;;;;;6.02;100.00;101671.75;10398526;28;20466;-77
2022/09/19 05:37:56;;;;;;;;;;;;;;;6.06;100.00;101682.38;10395260;28;20067;-76
2022/09/19 05:43:01;;;;;;;;;;;;;;;6.07;100.00;101689.41;10365226;28;20343;-81
2022/09/19 05:48:03;;;;;;;;;;;;;;;6.08;100.00;101681.69;10407816;28;20444;-76
2022/09/19 05:58:24;;;;;;;;;;;;;;;6.11;100.00;101696.66;10411894;28;19924;-75
2022/09/19 06:03:24;;;;;;;;;;;;;;;6.22;100.00;101697.47;10410548;28;20015;-76
2022/09/19 06:08:25;;;;;;;;;;;;;;;6.25;100.00;101697.72;10433751;28;20009;-77
2022/09/19 06:14:13;;;;;;;;;;;;;;;6.24;100.00;101706.31;10400938;28;19999;-75
2022/09/19 06:18:45;;;;;;;;;;;;;;;6.69;100.00;101695.06;10361925;28;19925;-76
2022/09/19 06:23:46;;;;;;;;;;;;;;;7.75;100.00;101708.97;10417633;28;19920;-77
2022/09/19 06:28:46;;;;;;;;;;;;;;;7.51;100.00;101709.78;10393776;28;19928;-77
2022/09/19 06:33:46;;;;;;;;;;;;;;;7.62;100.00;101719.28;10399425;28;20327;-77
2022/09/19 06:38:47;;;;;;;;;;;;;;;7.48;100.00;101720.84;10399617;28;19995;-77
2022/09/19 06:43:47;;;;;;;;;;;;;;;9.30;100.00;101726.56;10388695;28;19968;-77
2022/09/19 06:48:48;;;;;;;;;;;;;;;10.29;100.00;101727.69;10399234;28;20431;-77
2022/09/19 06:53:48;;;;;;;;;;;;;;;11.28;100.00;101732.78;10376586;28;19921;-77
2022/09/19 06:58:49;;;;;;;;;;;;;;;11.66;93.35;101735.78;10394443;28;19944;-77
2022/09/19 07:03:49;;;;;;;;;;;;;;;10.79;93.36;101745.56;10366601;28;20013;-76
2022/09/19 07:08:50;;;;;;;;;;;;;;;10.85;100.00;101757.28;10360661;28;19921;-78
2022/09/19 07:13:51;;;;;;;;;;;;;;;13.03;89.39;101753.66;10404250;28;20393;-78
2022/09/19 07:18:51;;;;;;;;;;;;;;;13.11;82.80;101759.34;10386071;28;19967;-78
2022/09/19 07:23:52;;;;;;;;;;;;;;;12.91;86.45;101767.97;10402668;28;20381;-79
2022/09/19 07:28:52;;;;;;;;;;;;;;;12.78;85.30;101762.88;10393189;28;19921;-78
2022/09/19 07:33:53;;;;;;;;;;;;;;;13.47;84.02;101778.72;10404203;28;19917;-78
2022/09/19 07:38:53;;;;;;;;;;;;;;;15.62;74.93;101764.75;10405039;28;19921;-77
2022/09/19 07:43:53;;;;;;;;;;;;;;;16.74;67.56;101772.63;10394652;28;19924;-77
2022/09/19 07:48:54;;;;;;;;;;;;;;;15.35;74.17;101786.50;10387279;28;20376;-77
2022/09/19 07:53:56;;;;;;;;;;;;;;;14.38;77.85;101790.09;10402190;28;20409;-77
2022/09/19 07:58:58;;;;;;;;;;;;;;;14.23;80.11;101797.28;10403933;28;19917;-77
2022/09/19 08:03:58;;;;;;;;;;;;;;;14.67;78.09;101793.19;10387102;28;20360;-78
2022/09/19 08:08:58;;;;;;;;;;;;;;;14.02;79.21;101800.69;10401779;28;19921;-77
2022/09/19 08:13:59;;;;;;;;;;;;;;;14.34;82.79;101806.59;10403459;28;19921;-78
2022/09/19 08:18:59;;;;;;;;;;;;;;;13.98;83.91;101814.53;10401405;28;20325;-78
2022/09/19 08:24:00;;;;;;;;;;;;;;;14.17;82.87;101810.16;10401064;28;19963;-78
2022/09/19 08:29:01;;;;;;;;;;;;;;;13.72;82.43;101827.31;10402479;28;19925;-77
2022/09/19 08:34:01;;;;;;;;;;;;;;;13.89;84.66;101843.94;10402728;28;19925;-79
2022/09/19 08:39:01;;;;;;;;;;;;;;;14.23;82.94;101836.78;10400470;28;20392;-79
2022/09/19 08:44:02;;;;;;;;;;;;;;;14.82;79.39;101836.91;10400957;28;19917;-79
2022/09/19 08:49:03;;;;;;;;;;;;;;;14.74;77.92;101859.38;10400966;28;20059;-78
2022/09/19 08:54:11;;;;;;;;;;;;;;;14.59;78.34;101846.38;10384246;28;20307;-78
2022/09/19 08:59:12;;;;;;;;;;;;;;;14.14;80.89;101852.13;10401501;28;19917;-79
2022/09/19 09:04:19;;;;;;;;;;;;;;;13.64;85.18;101847.06;10410656;28;20414;-78
2022/09/19 09:09:38;;;;;;;;;;;;;;;13.32;84.58;101836.66;10400822;28;19948;-78
2022/09/19 09:14:50;;;;;;;;;;;;;;;13.63;84.97;101837.34;10435611;28;19925;-78
2022/09/19 09:19:55;;;;;;;;;;;;;;;14.39;83.16;101841.94;10432048;28;19925;-79
2022/09/19 09:25:15;;;;;;;;;;;;;;;15.02;81.30;101834.28;10381047;28;19927;-77
2022/09/19 09:30:16;;;;;;;;;;;;;;;14.96;78.92;101835.81;10417170;28;19917;-81
2022/09/19 09:35:43;;;;;;;;;;;;;;;15.30;78.12;101838.13;10391819;28;19928;-79
2022/09/19 09:46:08;;;;;;;;;;;;;;;15.75;73.64;101832.13;10382697;28;19925;-79
2022/09/19 09:51:13;;;;;;;;;;;;;;;15.90;74.49;101831.91;10392734;28;19920;-78
2022/09/19 09:56:46;;;;;;;;;;;;;;;15.88;74.62;101847.69;10398659;28;19928;-79
2022/09/19 10:07:23;;;;;;;;;;;;;;;16.93;70.07;101842.06;10412674;28;19932;-78
2022/09/19 10:12:24;;;;;;;;;;;;;;;17.02;70.27;101847.72;10398973;28;19956;-77
2022/09/19 10:17:25;;;;;;;;;;;;;;;17.40;67.22;101840.25;10421357;28;20449;-77
2022/09/19 10:22:25;;;;;;;;;;;;;;;18.60;63.37;101833.50;10420492;28;19920;-77
2022/09/19 10:27:27;;;;;;;;;;;;;;;17.02;66.15;101829.19;10422420;28;19912;-77
2022/09/19 10:32:34;;;;;;;;;;;;;;;19.31;61.79;101832.91;10421971;28;20451;-78
2022/09/19 10:37:35;;;;;;;;;;;;;;;22.54;51.90;101820.78;10422773;28;19983;-78
2022/09/19 10:42:36;;;;;;;;;;;;;;;22.63;52.09;101824.47;10440558;28;19987;-79
2022/09/19 10:47:37;;;;;;;;;;;;;;;22.68;49.89;101807.66;10430846;28;20353;-79
2022/09/19 10:52:39;;;;;;;;;;;;;;;22.83;48.31;101809.59;10428319;28;19923;-78
2022/09/19 10:57:44;;;;;;;;;;;;;;;22.91;46.69;101816.78;10429702;28;19986;-79
2022/09/19 11:02:44;;;;;;;;;;;;;;;23.99;43.79;101806.22;10406691;28;19921;-77
2022/09/19 11:07:48;;;;;;;;;;;;;;;23.26;45.02;101809.22;10386966;28;20390;-77
2022/09/19 11:12:49;;;;;;;;;;;;;;;23.17;46.68;101806.41;10403972;28;20431;-77
2022/09/19 11:17:55;;;;;;;;;;;;;;;24.12;43.36;101796.53;10386947;28;20011;-77
2022/09/19 11:23:14;;;;;;;;;;;;;;;23.96;43.57;101808.88;10391458;28;19920;-80
2022/09/19 11:28:27;;;;;;;;;;;;;;;21.47;47.30;101835.09;10445547;28;19946;-78
2022/09/19 11:33:47;;;;;;;;;;;;;;;17.72;59.17;101850.13;10360795;28;19979;-80
2022/09/19 11:38:47;;;;;;;;;;;;;;;14.66;75.58;101859.00;10403498;28;19917;-80
2022/09/19 11:44:04;;;;;;;;;;;;;;;13.22;80.24;101855.41;10402017;28;19928;-80
2022/09/19 11:49:07;;;;;;;;;;;;;;;12.48;85.06;101850.63;10387098;28;20008;-79
2022/09/19 11:54:14;;;;;;;;;;;;;;;13.23;85.84;101854.59;10354168;28;19948;-79
2022/09/19 11:59:26;;;;;;;;;;;;;;;14.22;84.37;101862.22;10386526;28;19917;-78
2022/09/19 12:04:45;;;;;;;;;;;;;;;14.74;79.37;101854.09;10336192;28;19996;-78
2022/09/19 12:09:47;;;;;;;;;;;;;;;14.40;79.87;101850.78;10391053;28;19928;-80
2022/09/19 12:15:15;;;;;;;;;;;;;;;13.92;85.34;101851.06;10405031;28;19943;-79
2022/09/19 12:20:18;;;;;;;;;;;;;;;13.80;90.77;101843.47;10423823;28;19919;-79
2022/09/19 12:25:22;;;;;;;;;;;;;;;14.57;91.30;101829.59;10411452;28;19928;-78
2022/09/19 12:30:23;;;;;;;;;;;;;;;15.38;82.65;101829.75;10401495;28;19921;-80
2022/09/19 12:35:30;;;;;;;;;;;;;;;16.49;73.54;101826.28;10395825;28;20293;-78
2022/09/19 12:40:37;;;;;;;;;;;;;;;17.27;67.42;101820.38;10409313;28;19932;-79
2022/09/19 12:45:40;;;;;;;;;;;;;;;17.38;68.01;101819.88;10424860;28;19916;-79
2022/09/19 12:50:44;;;;;;;;;;;;;;;20.77;58.84;101812.44;10417822;28;19921;-79
2022/09/19 12:55:47;;;;;;;;;;;;;;;24.18;48.02;101815.28;10425011;28;19920;-78
2022/09/19 13:00:47;;;;;;;;;;;;;;;23.35;46.85;101816.41;10403301;28;19928;-78
2022/09/19 13:05:56;;;;;;;;;;;;;;;19.66;56.72;101829.38;10382810;28;19944;-80
2022/09/19 13:11:03;;;;;;;;;;;;;;;17.21;68.81;101828.09;10364966;28;19928;-79
2022/09/19 13:16:07;;;;;;;;;;;;;;;15.98;76.67;101823.47;10359918;28;19975;-81
2022/09/19 13:26:36;;;;;;;;;;;;;;;17.11;76.37;101813.66;10399809;28;19917;-78
2022/09/19 13:31:50;;;;;;;;;;;;;;;20.08;58.32;101815.38;10379389;28;20744;-80
2022/09/19 13:36:51;;;;;;;;;;;;;;;21.57;54.33;101806.84;10389682;28;19925;-79
2022/09/19 13:41:54;;;;;;;;;;;;;;;23.78;45.66;101799.84;10358091;28;19944;-79
2022/09/19 13:47:04;;;;;;;;;;;;;;;23.99;44.08;101788.44;10367261;28;19957;-80
2022/09/19 13:52:15;;;;;;;;;;;;;;;23.12;45.91;101793.00;10399302;28;19917;-79
2022/09/19 13:57:30;;;;;;;;;;;;;;;24.05;42.98;101792.94;10398006;28;19924;-78
2022/09/19 14:02:32;;;;;;;;;;;;;;;25.05;44.72;101803.19;10399063;28;19956;-78
2022/09/19 14:07:52;;;;;;;;;;;;;;;23.75;44.10;101799.81;10354553;28;20297;-78
2022/09/19 14:13:03;;;;;;;;;;;;;;;23.22;44.55;101798.44;10359231;28;19922;-78
2022/09/19 14:18:12;;;;;;;;;;;;;;;23.14;47.36;101795.69;10361291;28;19917;-77
2022/09/19 14:23:14;;;;;;;;;;;;;;;21.66;49.36;101795.50;10389812;28;20285;-78
2022/09/19 14:28:33;;;;;;;;;;;;;;;20.57;53.11;101796.06;10406814;28;20368;-77
2022/09/19 14:33:42;;;;;;;;;;;;;;;21.29;51.34;101794.81;10367993;28;20424;-76
2022/09/19 14:38:46;;;;;;;;;;;;;;;21.85;51.62;101794.00;10396255;28;19947;-76
2022/09/19 14:43:47;;;;;;;;;;;;;;;22.73;47.25;101789.91;10427634;28;19971;-77
2022/09/19 14:48:50;;;;;;;;;;;;;;;22.50;48.83;101784.28;10384214;28;19920;-78
2022/09/19 14:53:50;;;;;;;;;;;;;;;22.87;47.34;101782.06;10420621;28;19960;-78
2022/09/19 14:58:51;;;;;;;;;;;;;;;21.58;51.25;101795.31;10391655;28;20383;-79
2022/09/19 15:03:56;;;;;;;;;;;;;;;18.70;58.59;101798.47;10389024;28;20016;-78
2022/09/19 15:08:56;;;;;;;;;;;;;;;17.06;62.80;101788.81;10389662;28;20015;-79
2022/09/19 15:13:57;;;;;;;;;;;;;;;18.24;64.98;101783.84;10389900;28;20365;-78
2022/09/19 15:18:58;;;;;;;;;;;;;;;19.37;59.52;101781.75;10413823;28;20300;-79
2022/09/19 15:23:58;;;;;;;;;;;;;;;18.08;62.05;101788.66;10408028;28;19921;-79
2022/09/19 15:29:00;;;;;;;;;;;;;;;17.91;67.08;101796.94;10388090;28;19921;-78
2022/09/19 15:34:02;;;;;;;;;;;;;;;17.33;64.27;101801.19;10385879;28;19921;-78
2022/09/19 15:39:03;;;;;;;;;;;;;;;16.22;67.72;101800.59;10390859;28;19925;-78
2022/09/19 15:44:07;;;;;;;;;;;;;;;15.36;71.57;101815.59;10394672;28;19921;-78
2022/09/19 15:49:25;;;;;;;;;;;;;;;14.73;71.73;101810.13;10406134;28;20359;-78
2022/09/19 15:54:30;;;;;;;;;;;;;;;14.42;66.77;101806.97;10430237;28;19921;-79
2022/09/19 15:59:37;;;;;;;;;;;;;;;14.12;66.19;101815.22;10414045;28;19924;-79
2022/09/19 16:04:41;;;;;;;;;;;;;;;14.09;68.37;101829.13;10395260;28;19981;-78
2022/09/19 16:10:17;;;;;;;;;;;;;;;14.23;66.91;101813.09;10380924;28;20289;-78
2022/09/19 16:15:33;;;;;;;;;;;;;;;14.30;68.02;101819.56;10305245;28;19952;-79
2022/09/19 16:20:33;;;;;;;;;;;;;;;14.22;69.47;101819.19;10345448;28;19917;-79
2022/09/19 16:25:50;;;;;;;;;;;;;;;14.10;69.37;101824.78;10365307;28;19917;-80
2022/09/19 16:30:54;;;;;;;;;;;;;;;14.01;72.33;101838.38;10344294;28;19925;-79
2022/09/19 16:35:55;;;;;;;;;;;;;;;13.77;70.73;101832.81;10370118;28;20040;-78
2022/09/19 16:40:57;;;;;;;;;;;;;;;13.77;71.07;101833.69;10381642;28;19921;-80
2022/09/19 16:45:57;;;;;;;;;;;;;;;13.66;70.64;101837.50;10356227;28;20369;-80
2022/09/19 16:50:58;;;;;;;;;;;;;;;13.40;71.60;101839.69;10377920;28;19928;-79
2022/09/19 16:55:58;;;;;;;;;;;;;;;13.10;71.90;101841.63;10378601;28;20366;-80
2022/09/19 17:00:59;;;;;;;;;;;;;;;12.83;73.27;101850.72;10388542;28;19936;-79
2022/09/19 17:05:59;;;;;;;;;;;;;;;12.74;73.48;101861.66;10393725;28;19922;-80
2022/09/19 17:10:59;;;;;;;;;;;;;;;12.70;74.45;101862.31;10371256;28;19921;-80
2022/09/19 17:16:04;;;;;;;;;;;;;;;12.45;76.70;101868.81;10359200;28;20435;-78
2022/09/19 17:21:05;;;;;;;;;;;;;;;12.28;77.37;101880.09;10359605;28;19960;-81
2022/09/19 17:26:06;;;;;;;;;;;;;;;12.19;77.15;101878.75;10363214;28;19921;-80
2022/09/19 17:31:06;;;;;;;;;;;;;;;12.18;77.73;101894.41;10394396;28;20349;-80
2022/09/19 17:36:10;;;;;;;;;;;;;;;12.18;78.99;101902.28;10360416;28;19925;-81
2022/09/19 17:41:14;;;;;;;;;;;;;;;12.08;82.26;101899.94;10377538;28;20074;-82
2022/09/19 17:46:14;;;;;;;;;;;;;;;11.91;84.86;101907.69;10369894;28;19968;-86
2022/09/19 17:51:15;;;;;;;;;;;;;;;11.77;86.48;101905.97;10338739;28;20024;-83
2022/09/19 17:56:20;;;;;;;;;;;;;;;11.69;87.43;101911.66;10375950;28;20339;-83
2022/09/19 18:06:39;;;;;;;;;;;;;;;11.45;90.79;101911.97;10364471;28;19926;-84
2022/09/19 18:11:39;;;;;;;;;;;;;;;11.29;92.24;101923.25;10366404;28;19921;-84
2022/09/19 18:16:40;;;;;;;;;;;;;;;11.20;94.07;101930.56;10415620;28;19921;-83
2022/09/19 18:21:40;;;;;;;;;;;;;;;11.11;94.51;101930.88;10384218;28;20369;-83
2022/09/19 18:26:40;;;;;;;;;;;;;;;10.99;95.49;101927.50;10375360;28;20453;-83
2022/09/19 18:31:42;;;;;;;;;;;;;;;10.84;95.23;101944.03;10379553;28;19928;-85
2022/09/19 18:36:42;;;;;;;;;;;;;;;10.75;96.58;101942.56;10402867;28;20391;-83
2022/09/19 18:41:43;;;;;;;;;;;;;;;10.65;97.43;101946.28;10409671;28;19927;-84
2022/09/19 18:46:45;;;;;;;;;;;;;;;10.38;97.63;101944.56;10413217;28;19943;-83
2022/09/19 18:51:45;;;;;;;;;;;;;;;10.11;98.36;101947.16;10385323;28;19921;-82
2022/09/19 18:56:45;;;;;;;;;;;;;;;10.09;99.79;101938.31;10413586;28;20353;-80
2022/09/19 19:01:46;;;;;;;;;;;;;;;10.09;99.77;101950.47;10394472;28;20400;-82
2022/09/19 19:06:46;;;;;;;;;;;;;;;10.14;99.68;101955.22;10396390;28;19921;-79
2022/09/19 19:11:48;;;;;;;;;;;;;;;10.22;98.75;101963.56;10387666;28;19936;-83
2022/09/19 19:16:50;;;;;;;;;;;;;;;10.26;98.94;101965.56;10376907;28;20372;-83
2022/09/19 19:21:50;;;;;;;;;;;;;;;10.24;99.31;101968.91;10390047;28;19921;-83
2022/09/19 19:26:54;;;;;;;;;;;;;;;10.16;99.56;101960.53;10416207;28;20436;-83
2022/09/19 19:31:55;;;;;;;;;;;;;;;9.93;100.00;101970.34;10371037;28;19921;-80
2022/09/19 19:36:55;;;;;;;;;;;;;;;9.80;100.00;101968.63;10372454;28;19928;-79
2022/09/19 19:41:55;;;;;;;;;;;;;;;9.80;100.00;101972.94;10411457;28;19928;-81
2022/09/19 19:46:56;;;;;;;;;;;;;;;9.81;100.00;101969.53;10402189;28;19922;-82
2022/09/19 19:51:57;;;;;;;;;;;;;;;9.81;100.00;101957.38;10404403;28;19928;-81
2022/09/19 19:56:57;;;;;;;;;;;;;;;9.82;100.00;101960.88;10387447;28;20007;-82
2022/09/19 20:01:58;;;;;;;;;;;;;;;9.91;100.00;101951.03;10368966;28;19970;-81
2022/09/19 20:06:58;;;;;;;;;;;;;;;9.98;100.00;101958.50;10407835;28;20030;-82
2022/09/19 20:11:59;;;;;;;;;;;;;;;10.02;100.00;101971.78;10401799;28;19929;-82
2022/09/19 20:16:59;;;;;;;;;;;;;;;10.08;100.00;101974.81;10397893;28;19960;-81
2022/09/19 20:22:01;;;;;;;;;;;;;;;10.15;100.00;101966.56;10387953;28;19928;-80
2022/09/19 20:27:01;;;;;;;;;;;;;;;10.22;100.00;101967.91;10399452;28;19970;-79
2022/09/19 20:32:02;;;;;;;;;;;;;;;10.25;100.00;101973.34;10383706;28;20503;-79
2022/09/19 20:37:03;;;;;;;;;;;;;;;10.26;100.00;101976.03;10399948;28;19976;-79
2022/09/19 20:42:04;;;;;;;;;;;;;;;10.32;100.00;101974.66;10369369;28;19921;-79
2022/09/19 20:47:04;;;;;;;;;;;;;;;10.31;100.00;101976.38;10383600;28;19921;-77
2022/09/19 20:52:04;;;;;;;;;;;;;;;10.29;100.00;101980.59;10401484;28;19990;-78
2022/09/19 20:57:05;;;;;;;;;;;;;;;10.27;100.00;101979.59;10401485;28;20419;-79
2022/09/19 21:02:05;;;;;;;;;;;;;;;10.24;100.00;101985.50;10405547;28;19956;-80
2022/09/19 21:07:07;;;;;;;;;;;;;;;10.17;100.00;101982.38;10381901;28;19928;-79
2022/09/19 21:12:07;;;;;;;;;;;;;;;10.03;100.00;101987.59;10414320;28;19925;-79
2022/09/19 21:17:07;;;;;;;;;;;;;;;9.95;100.00;101994.03;10400287;28;19921;-79
2022/09/19 21:22:09;;;;;;;;;;;;;;;9.96;100.00;101998.44;10381858;28;19957;-79
2022/09/19 21:27:09;;;;;;;;;;;;;;;9.96;100.00;101994.09;10405076;28;20396;-79
2022/09/19 21:32:10;;;;;;;;;;;;;;;9.96;100.00;101990.59;10389237;28;19922;-79
2022/09/19 21:37:10;;;;;;;;;;;;;;;9.96;100.00;102001.06;10397023;28;19943;-79
2022/09/19 21:42:10;;;;;;;;;;;;;;;9.94;100.00;102000.94;10400113;28;20314;-79
2022/09/19 21:47:11;;;;;;;;;;;;;;;9.93;100.00;102003.47;10399274;28;19917;-78
2022/09/19 21:52:11;;;;;;;;;;;;;;;9.94;100.00;102007.91;10384112;28;19921;-77
2022/09/19 21:57:11;;;;;;;;;;;;;;;9.94;100.00;102018.34;10399646;28;19920;-78
2022/09/19 22:02:12;;;;;;;;;;;;;;;9.90;100.00;102017.22;10382271;28;19917;-77
2022/09/19 22:07:12;;;;;;;;;;;;;;;9.93;100.00;102020.03;10398555;28;20008;-78
2022/09/19 22:12:13;;;;;;;;;;;;;;;9.91;100.00;102019.03;10399503;28;20023;-77
2022/09/19 22:17:13;;;;;;;;;;;;;;;9.89;100.00;102015.41;10399837;28;19925;-77
2022/09/19 22:22:13;;;;;;;;;;;;;;;9.89;100.00;102020.63;10369605;28;19925;-79
2022/09/19 22:27:14;;;;;;;;;;;;;;;9.86;100.00;102016.91;10392990;28;19967;-78
2022/09/19 22:32:14;;;;;;;;;;;;;;;9.89;100.00;102012.78;10380673;28;19921;-78
2022/09/19 22:37:14;;;;;;;;;;;;;;;9.94;100.00;102015.75;10398128;28;19917;-78
2022/09/19 22:42:15;;;;;;;;;;;;;;;9.95;100.00;102020.16;10387833;28;19925;-79
2022/09/19 22:47:16;;;;;;;;;;;;;;;9.97;100.00;102023.78;10406858;28;19917;-78
2022/09/19 22:52:16;;;;;;;;;;;;;;;9.97;100.00;102026.41;10405799;28;19929;-78
2022/09/19 22:57:17;;;;;;;;;;;;;;;9.96;100.00;102025.50;10386750;28;20347;-78
2022/09/19 23:02:17;;;;;;;;;;;;;;;10.01;100.00;102025.81;10394067;28;20370;-78
2022/09/19 23:07:17;;;;;;;;;;;;;;;10.01;100.00;102027.50;10401428;28;19924;-78
2022/09/19 23:12:18;;;;;;;;;;;;;;;10.01;100.00;102024.91;10414323;28;19921;-78
2022/09/19 23:17:18;;;;;;;;;;;;;;;9.95;100.00;102020.16;10391419;28;19924;-79
2022/09/19 23:22:18;;;;;;;;;;;;;;;9.85;100.00;102023.84;10387162;28;20007;-79
2022/09/19 23:27:19;;;;;;;;;;;;;;;9.79;100.00;102021.72;10405588;28;20439;-78
2022/09/19 23:32:19;;;;;;;;;;;;;;;9.74;100.00;102025.72;10403808;28;20012;-78
2022/09/19 23:37:19;;;;;;;;;;;;;;;9.73;100.00;102017.75;10382237;28;19964;-79
2022/09/19 23:42:20;;;;;;;;;;;;;;;9.74;100.00;102009.13;10400094;28;19943;-78
2022/09/19 23:47:20;;;;;;;;;;;;;;;9.72;100.00;102016.88;10382459;28;19995;-80
2022/09/19 23:52:20;;;;;;;;;;;;;;;9.70;100.00;102008.00;10403846;28;20336;-80
2022/09/19 23:57:21;;;;;;;;;;;;;;;9.73;100.00;102004.69;10403447;28;19925;-80
